Time;durP1;ratioP1;P1;durP2;ratioP2;P2;SDS_P1;SDS_P2;PMS_P1;PMS_P2;Temp;Humidity;BMP_temperature;BMP_pressure;BME280_temperature;BME280_humidity;BME280_pressure;Samples;Min_cycle;Max_cycle;Signal;HPM_P1;HPM_P2
2021/01/26 00:00:28;;;;;;;20.33;11.60;;;4.90;80.60;;;;;;8301592;28;20494;-78
2021/01/26 00:04:46;;;;;;;14.73;9.47;;;4.90;80.60;;;;;;8303728;28;20441;-78
2021/01/26 00:08:50;;;;;;;14.20;9.60;;;4.90;80.50;;;;;;8326566;28;20452;-77
2021/01/26 00:12:51;;;;;;;25.10;10.00;;;4.90;80.40;;;;;;8302254;28;20200;-76
2021/01/26 00:17:05;;;;;;;19.40;8.97;;;5.00;80.40;;;;;;8290565;28;20446;-76
2021/01/26 00:21:05;;;;;;;17.23;11.30;;;5.00;80.40;;;;;;8322963;28;20477;-76
2021/01/26 00:25:14;;;;;;;19.70;10.90;;;5.00;80.40;;;;;;8294425;28;20437;-76
2021/01/26 00:29:15;;;;;;;21.23;11.93;;;5.00;80.30;;;;;;8288695;28;20203;-76
2021/01/26 00:33:22;;;;;;;17.07;12.23;;;5.00;80.70;;;;;;8294702;28;20548;-77
2021/01/26 00:37:23;;;;;;;21.27;12.43;;;5.00;82.20;;;;;;8287069;28;20195;-76
2021/01/26 00:41:23;;;;;;;22.93;14.20;;;4.90;83.20;;;;;;8291734;28;20477;-76
2021/01/26 00:45:26;;;;;;;25.70;17.60;;;4.80;83.90;;;;;;8277304;28;20286;-77
2021/01/26 00:49:30;;;;;;;29.07;16.07;;;4.70;84.00;;;;;;8288323;28;20204;-76
2021/01/26 00:53:39;;;;;;;23.27;12.03;;;4.70;83.70;;;;;;8288252;28;20455;-77
2021/01/26 00:57:40;;;;;;;15.43;10.70;;;4.80;83.70;;;;;;8291919;28;20847;-77
2021/01/26 01:01:41;;;;;;;29.60;14.27;;;4.80;83.10;;;;;;8296058;28;20893;-77
2021/01/26 01:05:42;;;;;;;17.43;12.10;;;4.90;82.80;;;;;;8301566;28;20285;-77
2021/01/26 01:09:46;;;;;;;26.53;13.60;;;4.90;82.30;;;;;;8300115;28;20347;-77
2021/01/26 01:13:46;;;;;;;25.67;12.30;;;5.00;81.90;;;;;;8302215;28;20227;-77
2021/01/26 01:17:47;;;;;;;47.53;13.80;;;5.00;81.70;;;;;;8300544;28;20442;-77
2021/01/26 01:21:48;;;;;;;16.00;11.53;;;5.00;81.60;;;;;;8296761;28;20206;-77
2021/01/26 01:25:56;;;;;;;16.60;10.87;;;5.00;81.40;;;;;;8297322;28;20450;-77
2021/01/26 01:30:07;;;;;;;19.53;12.10;;;5.10;81.20;;;;;;8300427;28;20271;-77
2021/01/26 01:34:08;;;;;;;19.67;10.53;;;5.10;80.70;;;;;;8300998;28;20463;-77
2021/01/26 01:38:13;;;;;;;22.77;11.90;;;5.10;80.70;;;;;;8295122;28;20454;-77
2021/01/26 01:42:14;;;;;;;23.47;11.53;;;5.10;80.80;;;;;;8297768;28;20478;-77
2021/01/26 01:46:21;;;;;;;18.27;11.30;;;5.10;80.60;;;;;;8331069;28;20482;-77
2021/01/26 01:50:37;;;;;;;17.20;11.53;;;5.20;80.70;;;;;;8299481;28;20249;-77
2021/01/26 01:54:46;;;;;;;27.73;12.67;;;5.10;80.80;;;;;;8292230;28;20453;-77
2021/01/26 01:58:57;;;;;;;13.57;10.93;;;5.10;81.00;;;;;;8297781;28;20541;-77
2021/01/26 02:03:08;;;;;;;15.57;11.47;;;5.10;81.00;;;;;;8317856;28;20492;-77
2021/01/26 02:07:11;;;;;;;12.70;9.70;;;5.10;80.80;;;;;;8303865;28;20450;-76
2021/01/26 02:11:15;;;;;;;11.30;8.50;;;5.10;80.00;;;;;;8296892;28;20446;-77
2021/01/26 02:15:16;;;;;;;12.37;8.37;;;5.20;79.60;;;;;;8292171;28;21031;-77
2021/01/26 02:19:42;;;;;;;12.53;7.73;;;5.20;79.40;;;;;;8312315;28;20195;-77
2021/01/26 02:24:18;;;;;;;13.73;9.10;;;5.30;79.20;;;;;;8323572;28;20462;-78
2021/01/26 02:29:06;;;;;;;10.90;7.67;;;5.20;79.10;;;;;;8265710;28;20533;-77
2021/01/26 02:33:22;;;;;;;10.90;8.10;;;5.30;79.20;;;;;;8291628;28;20469;-77
2021/01/26 02:37:34;;;;;;;22.50;9.30;;;5.30;79.20;;;;;;8308021;28;20517;-77
2021/01/26 02:41:48;;;;;;;16.00;10.47;;;5.20;79.40;;;;;;8312288;28;20532;-76
2021/01/26 02:46:14;;;;;;;14.83;10.13;;;5.20;79.70;;;;;;8294543;28;20457;-77
2021/01/26 02:50:52;;;;;;;22.53;11.23;;;5.30;80.00;;;;;;8309327;28;20601;-77
2021/01/26 02:55:05;;;;;;;16.67;11.07;;;5.30;79.80;;;;;;8290844;28;21206;-77
2021/01/26 02:59:15;;;;;;;14.10;9.90;;;5.20;79.80;;;;;;8297061;28;20450;-77
2021/01/26 03:03:31;;;;;;;18.47;9.03;;;5.20;80.00;;;;;;8305050;28;20457;-77
2021/01/26 03:07:36;;;;;;;14.67;9.60;;;5.20;80.20;;;;;;8325915;28;20442;-76
2021/01/26 03:11:43;;;;;;;16.43;10.70;;;5.20;80.20;;;;;;8297344;28;20487;-76
2021/01/26 03:15:57;;;;;;;15.90;9.10;;;5.20;80.40;;;;;;8292746;28;20486;-77
2021/01/26 03:20:09;;;;;;;14.80;10.57;;;5.20;80.50;;;;;;8295753;28;20469;-77
2021/01/26 03:24:27;;;;;;;12.37;9.00;;;5.20;79.70;;;;;;8294623;28;20975;-76
2021/01/26 03:28:28;;;;;;;18.47;8.63;;;5.30;79.30;;;;;;8294893;28;20538;-76
2021/01/26 03:32:41;;;;;;;12.93;8.90;;;5.30;79.30;;;;;;8288823;28;20542;-76
2021/01/26 03:36:42;;;;;;;19.03;9.63;;;5.30;80.10;;;;;;8285010;28;21110;-76
2021/01/26 03:40:48;;;;;;;13.30;8.27;;;5.20;79.60;;;;;;8296609;28;20466;-77
2021/01/26 03:44:49;;;;;;;14.83;9.93;;;5.20;80.00;;;;;;8290999;28;20520;-77
2021/01/26 03:49:24;;;;;;;13.10;8.70;;;5.10;80.00;;;;;;8289411;28;20442;-76
2021/01/26 03:53:58;;;;;;;18.63;10.27;;;5.20;80.00;;;;;;8307903;28;20197;-77
2021/01/26 03:58:42;;;;;;;12.83;9.10;;;5.20;79.60;;;;;;8294703;28;20448;-76
2021/01/26 04:03:09;;;;;;;15.90;8.37;;;5.30;79.40;;;;;;8293253;28;20519;-76
2021/01/26 04:07:20;;;;;;;9.50;6.70;;;5.30;79.10;;;;;;8324644;28;20476;-76
2021/01/26 04:11:37;;;;;;;15.27;8.83;;;5.30;78.90;;;;;;8294014;28;20457;-76
2021/01/26 04:15:54;;;;;;;13.30;8.23;;;5.40;79.20;;;;;;8329461;28;20453;-75
2021/01/26 04:20:02;;;;;;;10.70;7.77;;;5.40;79.20;;;;;;8293950;28;20462;-75
2021/01/26 04:24:10;;;;;;;11.57;7.97;;;5.40;79.40;;;;;;8296000;28;20454;-76
2021/01/26 04:28:15;;;;;;;12.90;8.00;;;5.40;79.00;;;;;;8292773;28;20446;-76
2021/01/26 04:32:17;;;;;;;11.07;7.90;;;5.40;79.00;;;;;;8289428;28;20474;-76
2021/01/26 04:36:24;;;;;;;8.43;7.30;;;5.40;79.00;;;;;;8289369;28;20439;-76
2021/01/26 04:40:26;;;;;;;20.23;8.10;;;5.40;79.00;;;;;;8316579;28;20485;-76
2021/01/26 04:44:44;;;;;;;9.27;7.47;;;5.40;78.60;;;;;;8284597;28;20546;-76
2021/01/26 04:49:20;;;;;;;12.60;8.53;;;5.40;78.50;;;;;;8304915;28;20446;-76
2021/01/26 04:53:33;;;;;;;14.17;7.90;;;5.50;78.60;;;;;;8287412;28;21239;-76
2021/01/26 04:57:52;;;;;;;14.23;7.47;;;5.50;78.60;;;;;;8300360;28;21247;-76
2021/01/26 05:02:14;;;;;;;12.00;7.57;;;5.50;78.70;;;;;;8293173;28;20572;-76
2021/01/26 05:06:18;;;;;;;13.57;9.13;;;5.50;78.90;;;;;;8304489;28;20442;-76
2021/01/26 05:10:37;;;;;;;14.67;7.20;;;5.50;79.30;;;;;;8291111;28;20442;-76
2021/01/26 05:14:49;;;;;;;10.97;8.23;;;5.40;79.40;;;;;;8302870;28;20492;-76
2021/01/26 05:19:03;;;;;;;12.33;7.97;;;5.40;79.40;;;;;;8289236;28;20467;-76
2021/01/26 05:23:08;;;;;;;18.77;9.83;;;5.40;79.20;;;;;;8287940;28;21061;-76
2021/01/26 05:27:08;;;;;;;16.60;9.57;;;5.40;79.20;;;;;;8289528;28;20447;-76
2021/01/26 05:31:26;;;;;;;11.60;7.70;;;5.50;79.00;;;;;;8295738;28;20445;-77
2021/01/26 05:35:27;;;;;;;11.07;8.63;;;5.50;79.00;;;;;;8293760;28;20466;-76
2021/01/26 05:39:37;;;;;;;15.57;8.70;;;5.40;78.90;;;;;;8287958;28;20442;-76
2021/01/26 05:43:40;;;;;;;8.63;6.30;;;5.50;79.00;;;;;;8292455;28;20471;-76
2021/01/26 05:47:41;;;;;;;16.53;7.83;;;5.50;78.90;;;;;;8321847;28;21033;-76
2021/01/26 05:51:44;;;;;;;14.13;8.90;;;5.50;78.90;;;;;;8292027;28;20820;-77
2021/01/26 05:56:08;;;;;;;8.53;7.77;;;5.50;79.00;;;;;;8279928;28;20375;-77
2021/01/26 06:00:12;;;;;;;10.00;7.70;;;5.50;78.70;;;;;;8297031;28;20497;-77
2021/01/26 06:04:24;;;;;;;15.43;7.57;;;5.40;78.80;;;;;;8306939;28;20446;-76
2021/01/26 06:08:29;;;;;;;15.23;7.57;;;5.40;78.90;;;;;;8296530;28;20442;-76
2021/01/26 06:12:30;;;;;;;8.30;7.30;;;5.40;78.90;;;;;;8328003;28;20898;-76
2021/01/26 06:16:30;;;;;;;8.47;7.70;;;5.40;78.80;;;;;;8304014;28;20467;-76
2021/01/26 06:20:31;;;;;;;17.00;9.83;;;5.40;78.50;;;;;;8279065;28;20898;-76
2021/01/26 06:24:35;;;;;;;23.40;10.43;;;5.40;78.30;;;;;;8317560;28;20226;-76
2021/01/26 06:28:45;;;;;;;7.57;6.70;;;5.50;78.40;;;;;;8294417;28;20457;-76
2021/01/26 06:32:49;;;;;;;9.87;7.80;;;5.40;78.50;;;;;;8291295;28;20475;-76
2021/01/26 06:37:03;;;;;;;15.10;7.83;;;5.40;79.00;;;;;;8309338;28;20454;-76
2021/01/26 06:41:37;;;;;;;20.33;6.87;;;5.40;78.90;;;;;;8293335;28;20478;-77
2021/01/26 06:45:57;;;;;;;8.40;6.97;;;5.30;78.90;;;;;;8333977;28;20458;-75
2021/01/26 06:50:16;;;;;;;15.47;8.10;;;5.30;79.00;;;;;;8293175;28;20447;-76
2021/01/26 06:54:54;;;;;;;8.63;7.50;;;5.40;79.10;;;;;;8327386;28;20514;-78
2021/01/26 06:59:07;;;;;;;7.43;5.90;;;5.40;78.90;;;;;;8315726;28;20788;-77
2021/01/26 07:03:37;;;;;;;8.43;6.77;;;5.40;78.70;;;;;;8307227;28;20578;-76
2021/01/26 07:08:03;;;;;;;10.70;5.87;;;5.50;78.80;;;;;;8319686;28;20883;-76
2021/01/26 07:12:26;;;;;;;15.73;6.63;;;5.40;78.60;;;;;;8309661;28;20610;-76
2021/01/26 07:17:06;;;;;;;8.83;5.53;;;5.40;78.20;;;;;;8321559;28;20802;-78
2021/01/26 07:21:48;;;;;;;8.90;5.60;;;5.50;78.00;;;;;;8296526;28;20478;-76
2021/01/26 07:26:24;;;;;;;8.67;6.00;;;5.50;77.90;;;;;;8308106;28;20447;-77
2021/01/26 07:30:40;;;;;;;6.30;4.73;;;5.50;77.70;;;;;;8323991;28;20450;-77
2021/01/26 07:35:30;;;;;;;13.30;5.70;;;5.50;77.70;;;;;;8294441;28;20467;-77
2021/01/26 07:39:31;;;;;;;7.00;5.57;;;5.50;77.50;;;;;;8282003;28;20521;-76
2021/01/26 07:44:00;;;;;;;5.90;5.30;;;5.60;77.40;;;;;;8305476;28;20469;-77
2021/01/26 07:48:34;;;;;;;17.47;6.40;;;5.60;77.60;;;;;;8319607;28;20215;-78
2021/01/26 07:52:38;;;;;;;12.07;6.77;;;5.60;77.80;;;;;;8293631;28;20526;-76
2021/01/26 07:56:40;;;;;;;12.00;6.83;;;5.60;77.80;;;;;;8291729;28;20730;-76
2021/01/26 08:00:46;;;;;;;8.40;6.53;;;5.50;78.10;;;;;;8294708;28;20474;-77
2021/01/26 08:04:57;;;;;;;5.90;4.57;;;5.50;78.20;;;;;;8289170;28;20473;-75
2021/01/26 08:09:04;;;;;;;8.80;4.83;;;5.50;77.50;;;;;;8296190;28;20876;-77
2021/01/26 08:13:06;;;;;;;5.70;4.40;;;5.70;77.40;;;;;;8297817;28;20847;-78
2021/01/26 08:17:11;;;;;;;6.83;4.70;;;5.80;76.90;;;;;;8291714;28;20451;-76
2021/01/26 08:21:55;;;;;;;8.13;4.47;;;5.80;76.30;;;;;;8288580;28;20474;-75
2021/01/26 08:26:15;;;;;;;4.27;3.83;;;5.80;76.00;;;;;;8288719;28;20435;-76
2021/01/26 08:30:22;;;;;;;10.83;5.90;;;5.90;75.70;;;;;;8291799;28;20443;-76
2021/01/26 08:34:34;;;;;;;19.70;6.20;;;6.00;75.50;;;;;;8288878;28;21153;-76
2021/01/26 08:38:55;;;;;;;6.30;4.53;;;6.00;75.70;;;;;;8286033;28;20450;-76
2021/01/26 08:43:02;;;;;;;9.13;5.03;;;6.10;76.10;;;;;;8306592;28;20517;-77
2021/01/26 08:47:41;;;;;;;4.57;4.00;;;6.70;75.10;;;;;;8290019;28;21284;-76
2021/01/26 08:51:46;;;;;;;8.83;5.57;;;7.90;69.50;;;;;;8278669;28;20479;-75
2021/01/26 08:55:59;;;;;;;13.30;6.13;;;7.90;69.10;;;;;;8280466;28;20451;-76
2021/01/26 09:00:18;;;;;;;12.57;5.70;;;7.40;70.90;;;;;;8319692;28;20466;-76
2021/01/26 09:04:29;;;;;;;7.33;6.33;;;7.00;72.60;;;;;;8312988;28;20543;-75
2021/01/26 09:08:49;;;;;;;11.43;6.93;;;6.70;73.50;;;;;;8315268;28;20440;-75
2021/01/26 09:13:01;;;;;;;21.07;5.20;;;6.40;74.70;;;;;;8284994;28;20573;-76
2021/01/26 09:17:12;;;;;;;8.60;5.53;;;6.20;75.30;;;;;;8288362;28;20993;-76
2021/01/26 09:21:15;;;;;;;10.77;5.73;;;6.20;75.40;;;;;;8285761;28;20478;-76
2021/01/26 09:25:24;;;;;;;17.53;5.90;;;6.20;75.20;;;;;;8313350;28;20446;-76
2021/01/26 09:29:28;;;;;;;9.03;5.73;;;6.30;75.10;;;;;;8296819;28;20443;-76
2021/01/26 09:33:29;;;;;;;7.40;4.70;;;6.30;74.40;;;;;;8302679;28;20494;-76
2021/01/26 09:37:31;;;;;;;5.47;5.07;;;6.30;74.90;;;;;;8300296;28;20470;-76
2021/01/26 09:41:37;;;;;;;8.43;5.07;;;6.40;74.30;;;;;;8292407;28;20478;-77
2021/01/26 09:45:49;;;;;;;7.30;6.70;;;6.50;74.10;;;;;;8293490;28;20481;-75
2021/01/26 09:50:05;;;;;;;7.07;5.17;;;6.60;74.20;;;;;;8287059;28;20459;-76
2021/01/26 09:54:25;;;;;;;7.33;4.03;;;6.70;74.30;;;;;;8298329;28;20442;-76
2021/01/26 09:58:31;;;;;;;15.50;6.27;;;6.90;74.00;;;;;;8292190;28;20455;-76
2021/01/26 10:02:44;;;;;;;12.57;6.13;;;6.90;73.90;;;;;;8290628;28;20498;-75
2021/01/26 10:06:45;;;;;;;8.37;5.10;;;7.10;73.80;;;;;;8294285;28;20482;-76
2021/01/26 10:10:45;;;;;;;10.83;4.27;;;7.00;73.80;;;;;;8296620;28;20861;-76
2021/01/26 10:15:34;;;;;;;8.53;5.80;;;6.90;74.00;;;;;;8319108;28;20460;-74
2021/01/26 10:19:36;;;;;;;10.80;4.60;;;6.80;74.50;;;;;;8289209;28;20793;-76
2021/01/26 10:23:43;;;;;;;8.00;4.60;;;6.90;74.70;;;;;;8321375;28;20448;-75
2021/01/26 10:27:47;;;;;;;5.73;5.23;;;6.80;74.40;;;;;;8305302;28;20974;-76
2021/01/26 10:31:55;;;;;;;7.80;4.30;;;6.80;75.20;;;;;;8306714;28;20447;-76
2021/01/26 10:36:16;;;;;;;12.10;4.30;;;6.80;75.30;;;;;;8295652;28;20443;-76
2021/01/26 10:40:31;;;;;;;9.20;4.57;;;6.90;75.30;;;;;;8289258;28;20479;-75
2021/01/26 10:44:47;;;;;;;5.80;4.53;;;6.90;74.90;;;;;;8297341;28;20509;-75
2021/01/26 10:48:48;;;;;;;5.30;4.50;;;6.80;74.80;;;;;;8289982;28;20477;-75
2021/01/26 10:52:51;;;;;;;7.63;5.00;;;6.90;75.30;;;;;;8279248;28;21047;-75
2021/01/26 10:56:54;;;;;;;5.73;3.67;;;6.90;75.10;;;;;;8322994;28;20447;-75
2021/01/26 11:00:54;;;;;;;6.77;3.77;;;7.10;74.70;;;;;;8306592;28;20475;-75
2021/01/26 11:04:55;;;;;;;12.97;4.23;;;7.20;74.10;;;;;;8287967;28;20501;-76
2021/01/26 11:08:58;;;;;;;10.20;5.40;;;7.40;74.30;;;;;;8295005;28;20185;-76
2021/01/26 11:13:00;;;;;;;7.70;4.07;;;7.40;73.50;;;;;;8285067;28;20451;-75
2021/01/26 11:17:02;;;;;;;7.40;3.13;;;7.40;73.30;;;;;;8318758;28;20456;-75
2021/01/26 11:21:03;;;;;;;11.30;4.13;;;7.30;73.00;;;;;;8291429;28;20533;-74
2021/01/26 11:25:07;;;;;;;4.10;3.53;;;7.40;73.20;;;;;;8313881;28;20447;-75
2021/01/26 11:29:15;;;;;;;6.43;3.87;;;7.40;73.40;;;;;;8288414;28;20454;-75
2021/01/26 11:33:25;;;;;;;8.67;3.60;;;7.40;72.90;;;;;;8290744;28;20468;-74
2021/01/26 11:37:26;;;;;;;10.67;4.60;;;7.30;72.70;;;;;;8284137;28;21200;-75
2021/01/26 11:41:28;;;;;;;9.20;3.93;;;7.30;73.00;;;;;;8273525;28;20828;-75
2021/01/26 11:45:39;;;;;;;8.53;4.23;;;7.30;73.50;;;;;;8290457;28;20471;-76
2021/01/26 11:49:44;;;;;;;16.03;4.73;;;7.30;73.40;;;;;;8290271;28;20472;-76
2021/01/26 11:53:46;;;;;;;5.17;4.67;;;7.30;73.80;;;;;;8291733;28;20486;-75
2021/01/26 11:57:48;;;;;;;18.20;6.17;;;7.20;73.30;;;;;;8292241;28;20574;-76
2021/01/26 12:01:53;;;;;;;15.13;4.50;;;7.20;73.50;;;;;;8293950;28;20564;-76
2021/01/26 12:05:58;;;;;;;13.30;4.33;;;7.30;72.90;;;;;;8302269;28;20513;-76
2021/01/26 12:10:02;;;;;;;5.00;4.50;;;7.40;72.70;;;;;;8295727;28;20458;-78
2021/01/26 12:14:11;;;;;;;7.70;6.13;;;7.50;72.00;;;;;;8312565;28;21018;-76
2021/01/26 12:18:13;;;;;;;5.50;4.57;;;7.60;71.40;;;;;;8290612;28;20475;-75
2021/01/26 12:22:14;;;;;;;12.43;5.30;;;7.70;71.60;;;;;;8299933;28;20867;-76
2021/01/26 12:26:17;;;;;;;7.20;4.77;;;7.70;72.10;;;;;;8286466;28;20535;-76
2021/01/26 12:30:19;;;;;;;13.93;5.07;;;7.80;71.60;;;;;;8291458;28;20465;-76
2021/01/26 12:34:21;;;;;;;9.37;5.03;;;8.00;71.10;;;;;;8292962;28;20500;-76
2021/01/26 12:38:25;;;;;;;8.00;4.20;;;8.10;71.10;;;;;;8292208;28;20949;-75
2021/01/26 12:42:31;;;;;;;6.20;4.07;;;8.20;70.80;;;;;;8293588;28;20607;-77
2021/01/26 12:46:40;;;;;;;5.17;4.60;;;8.20;70.00;;;;;;8293883;28;20603;-76
2021/01/26 12:50:46;;;;;;;12.30;4.47;;;8.10;69.30;;;;;;8295638;28;20485;-76
2021/01/26 12:54:47;;;;;;;11.33;4.13;;;8.10;71.00;;;;;;8286133;28;20467;-76
2021/01/26 12:58:48;;;;;;;10.40;5.03;;;8.20;70.80;;;;;;8295277;28;20453;-77
2021/01/26 13:02:54;;;;;;;6.17;4.10;;;8.20;69.60;;;;;;8283160;28;20225;-76
2021/01/26 13:06:54;;;;;;;11.93;5.77;;;8.20;69.60;;;;;;8312486;28;20471;-75
2021/01/26 13:11:02;;;;;;;8.30;5.30;;;8.30;68.80;;;;;;8330511;28;20498;-75
2021/01/26 13:15:06;;;;;;;11.13;6.07;;;8.40;69.60;;;;;;8316438;28;20195;-75
2021/01/26 13:19:09;;;;;;;8.93;5.63;;;8.40;69.50;;;;;;8294158;28;20460;-75
2021/01/26 13:23:10;;;;;;;8.90;5.00;;;8.50;69.20;;;;;;8295616;28;20469;-75
2021/01/26 13:27:14;;;;;;;6.63;4.93;;;8.30;69.10;;;;;;8302107;28;20534;-75
2021/01/26 13:31:19;;;;;;;8.73;5.90;;;8.10;69.10;;;;;;8298209;28;20448;-75
2021/01/26 13:35:32;;;;;;;10.07;5.20;;;7.80;69.90;;;;;;8279421;28;20833;-74
2021/01/26 13:39:49;;;;;;;5.83;5.33;;;7.60;71.30;;;;;;8299362;28;20455;-74
2021/01/26 13:43:52;;;;;;;5.23;4.10;;;7.50;71.30;;;;;;8281101;28;20465;-74
2021/01/26 13:47:53;;;;;;;4.50;4.10;;;7.40;71.00;;;;;;8334137;28;20253;-74
2021/01/26 13:51:54;;;;;;;5.27;4.87;;;7.40;71.00;;;;;;8297049;28;20448;-75
2021/01/26 13:55:58;;;;;;;7.47;4.30;;;7.20;71.40;;;;;;8310960;28;20811;-75
2021/01/26 14:00:07;;;;;;;9.90;5.07;;;7.20;71.20;;;;;;8299477;28;20224;-75
2021/01/26 14:04:08;;;;;;;11.27;5.00;;;7.10;71.40;;;;;;8309618;28;20890;-74
2021/01/26 14:08:11;;;;;;;10.80;5.23;;;7.10;71.60;;;;;;8294480;28;20804;-74
2021/01/26 14:12:12;;;;;;;7.70;5.60;;;7.10;70.90;;;;;;8291393;28;20614;-76
2021/01/26 14:16:19;;;;;;;5.73;5.00;;;7.20;70.80;;;;;;8307287;28;20789;-74
2021/01/26 14:20:20;;;;;;;8.63;5.47;;;7.20;71.20;;;;;;8308027;28;20330;-76
2021/01/26 14:24:26;;;;;;;7.37;5.60;;;7.20;70.80;;;;;;8288317;28;20447;-75
2021/01/26 14:28:34;;;;;;;6.57;5.00;;;7.10;71.60;;;;;;8274191;28;20509;-75
2021/01/26 14:32:37;;;;;;;7.10;5.90;;;7.10;71.70;;;;;;8294519;28;20463;-74
2021/01/26 14:36:41;;;;;;;5.23;4.50;;;7.10;71.40;;;;;;8299065;28;20440;-73
2021/01/26 14:40:46;;;;;;;7.23;5.20;;;7.20;71.20;;;;;;8277171;28;20468;-75
2021/01/26 14:44:47;;;;;;;5.03;4.63;;;7.20;70.90;;;;;;8288153;28;20466;-75
2021/01/26 14:48:49;;;;;;;5.50;5.10;;;7.20;70.90;;;;;;8323629;28;20443;-75
2021/01/26 14:52:55;;;;;;;6.90;5.37;;;7.10;71.10;;;;;;8307064;28;20446;-75
2021/01/26 14:56:56;;;;;;;8.40;4.70;;;7.10;71.60;;;;;;8286952;28;20479;-75
2021/01/26 15:00:57;;;;;;;10.70;4.57;;;7.10;71.60;;;;;;8300421;28;20468;-76
2021/01/26 15:05:06;;;;;;;5.03;4.17;;;7.10;71.50;;;;;;8296289;28;20435;-75
2021/01/26 15:09:07;;;;;;;10.60;3.97;;;7.10;70.90;;;;;;8291495;28;20614;-75
2021/01/26 15:13:08;;;;;;;5.10;4.60;;;7.10;70.50;;;;;;8292388;28;20863;-76
2021/01/26 15:17:10;;;;;;;5.33;4.33;;;7.00;71.00;;;;;;8293165;28;20970;-75
2021/01/26 15:21:13;;;;;;;7.00;4.13;;;7.00;71.30;;;;;;8287247;28;20261;-76
2021/01/26 15:25:14;;;;;;;6.27;4.47;;;7.00;71.40;;;;;;8302285;28;20440;-75
2021/01/26 15:29:25;;;;;;;9.70;4.70;;;7.10;71.20;;;;;;8292688;28;20435;-76
2021/01/26 15:33:29;;;;;;;7.03;3.83;;;7.10;69.40;;;;;;8294804;28;20474;-75
2021/01/26 15:37:33;;;;;;;4.67;4.10;;;7.10;69.60;;;;;;8298061;28;20509;-75
2021/01/26 15:41:36;;;;;;;5.17;3.90;;;7.10;70.00;;;;;;8290703;28;20472;-76
2021/01/26 15:45:47;;;;;;;6.37;5.13;;;7.10;69.50;;;;;;8296868;28;20533;-75
2021/01/26 15:49:48;;;;;;;5.40;4.27;;;7.00;69.60;;;;;;8283043;28;20444;-77
2021/01/26 15:53:50;;;;;;;7.20;4.30;;;6.90;69.90;;;;;;8297579;28;20452;-76
2021/01/26 15:57:54;;;;;;;7.60;5.47;;;6.80;69.30;;;;;;8305658;28;21003;-74
2021/01/26 16:02:04;;;;;;;9.07;5.47;;;6.70;69.30;;;;;;8275112;28;20463;-75
2021/01/26 16:06:09;;;;;;;5.60;5.10;;;6.60;69.20;;;;;;8306106;28;20490;-75
2021/01/26 16:10:11;;;;;;;6.27;5.63;;;6.50;69.50;;;;;;8291050;28;20446;-75
2021/01/26 16:14:17;;;;;;;8.27;6.40;;;6.30;69.90;;;;;;8318909;28;20459;-75
2021/01/26 16:18:18;;;;;;;9.13;5.63;;;6.10;70.20;;;;;;8288621;28;20455;-75
2021/01/26 16:22:31;;;;;;;6.03;5.17;;;5.90;70.70;;;;;;8324490;28;20476;-74
2021/01/26 16:26:34;;;;;;;7.37;5.57;;;5.70;71.30;;;;;;8272472;28;20706;-75
2021/01/26 16:30:37;;;;;;;12.40;5.47;;;5.50;71.60;;;;;;8304643;28;20461;-74
2021/01/26 16:34:44;;;;;;;7.32;5.10;;;5.30;72.20;;;;;;8290497;28;20532;-74
2021/01/26 16:38:51;;;;;;;10.53;8.07;;;5.10;72.80;;;;;;8286692;28;20195;-75
2021/01/26 16:42:53;;;;;;;7.13;5.67;;;5.00;72.80;;;;;;8285535;28;20557;-75
2021/01/26 16:46:55;;;;;;;10.17;6.90;;;4.90;73.40;;;;;;8269610;28;20461;-74
2021/01/26 16:50:57;;;;;;;16.97;7.07;;;4.80;73.80;;;;;;8294092;28;20512;-75
2021/01/26 16:55:01;;;;;;;11.57;8.23;;;4.70;74.20;;;;;;8308256;28;20214;-75
2021/01/26 16:59:03;;;;;;;8.23;6.20;;;4.60;74.60;;;;;;8278599;28;20569;-73
2021/01/26 17:03:13;;;;;;;9.10;6.90;;;4.50;75.10;;;;;;8286433;28;20479;-74
2021/01/26 17:07:16;;;;;;;6.93;5.50;;;4.50;75.50;;;;;;8291707;28;20455;-76
2021/01/26 17:11:20;;;;;;;7.27;5.90;;;4.40;75.60;;;;;;8272326;28;20458;-76
2021/01/26 17:15:23;;;;;;;7.97;5.80;;;4.40;76.00;;;;;;8306503;28;20493;-75
2021/01/26 17:19:30;;;;;;;6.77;6.00;;;4.50;76.30;;;;;;8289314;28;20448;-74
2021/01/26 17:23:36;;;;;;;11.13;4.83;;;4.50;76.40;;;;;;8291833;28;20473;-75
2021/01/26 17:27:37;;;;;;;7.30;5.10;;;4.40;76.40;;;;;;8305343;28;20480;-75
2021/01/26 17:31:41;;;;;;;7.50;6.60;;;4.40;76.60;;;;;;8295508;28;20456;-74
2021/01/26 17:35:46;;;;;;;6.63;5.97;;;4.40;76.90;;;;;;8288586;28;20703;-75
2021/01/26 17:39:54;;;;;;;10.13;5.60;;;4.40;77.10;;;;;;8285556;28;20859;-75
2021/01/26 17:43:58;;;;;;;5.80;4.30;;;4.40;77.80;;;;;;8298311;28;21001;-75
2021/01/26 17:47:59;;;;;;;9.73;5.60;;;4.40;77.50;;;;;;8292419;28;20462;-75
2021/01/26 17:52:08;;;;;;;15.30;7.10;;;4.50;77.50;;;;;;8293052;28;21042;-75
2021/01/26 17:56:15;;;;;;;15.20;8.37;;;4.50;77.20;;;;;;8279011;28;20445;-75
2021/01/26 18:00:20;;;;;;;16.10;7.50;;;4.50;77.30;;;;;;8297091;28;20497;-76
2021/01/26 18:04:28;;;;;;;12.90;8.07;;;4.50;77.40;;;;;;8325816;28;20495;-74
2021/01/26 18:08:29;;;;;;;10.13;6.77;;;4.50;77.40;;;;;;8289296;28;20453;-74
2021/01/26 18:12:35;;;;;;;13.40;6.30;;;4.60;77.40;;;;;;8291389;28;20438;-74
2021/01/26 18:16:38;;;;;;;16.87;7.73;;;4.50;77.30;;;;;;8295480;28;20970;-75
2021/01/26 18:20:39;;;;;;;10.07;6.57;;;4.50;77.60;;;;;;8300859;28;20539;-75
2021/01/26 18:24:42;;;;;;;9.60;5.70;;;4.40;77.80;;;;;;8290111;28;20440;-76
2021/01/26 18:28:42;;;;;;;6.00;4.60;;;4.40;78.40;;;;;;8278225;28;21009;-74
2021/01/26 18:32:48;;;;;;;7.10;5.83;;;4.40;78.80;;;;;;8298082;28;21342;-75
2021/01/26 18:36:50;;;;;;;6.20;5.77;;;4.40;78.80;;;;;;8289801;28;20296;-75
2021/01/26 18:40:53;;;;;;;7.63;5.13;;;4.40;78.80;;;;;;8297242;28;20523;-75
2021/01/26 18:44:54;;;;;;;8.53;5.43;;;4.40;79.00;;;;;;8296981;28;20471;-75
2021/01/26 18:48:59;;;;;;;8.83;7.83;;;4.30;79.60;;;;;;8289824;28;20449;-75
2021/01/26 18:53:10;;;;;;;9.20;6.40;;;4.30;79.20;;;;;;8292183;28;20192;-75
2021/01/26 18:57:12;;;;;;;12.00;5.87;;;4.30;79.20;;;;;;8307208;28;20486;-75
2021/01/26 19:01:14;;;;;;;8.33;5.43;;;4.20;79.40;;;;;;8303281;28;20480;-75
2021/01/26 19:05:18;;;;;;;7.70;6.43;;;4.20;79.20;;;;;;8291485;28;20449;-75
2021/01/26 19:09:21;;;;;;;6.10;5.50;;;4.20;79.20;;;;;;8320877;28;20480;-75
2021/01/26 19:13:23;;;;;;;9.73;6.23;;;4.10;79.20;;;;;;8286989;28;20452;-75
2021/01/26 19:17:24;;;;;;;8.47;5.50;;;4.10;79.30;;;;;;8287035;28;20459;-75
2021/01/26 19:21:26;;;;;;;6.00;5.10;;;4.10;78.90;;;;;;8289542;28;20501;-74
2021/01/26 19:25:28;;;;;;;11.43;5.73;;;4.20;78.50;;;;;;8290335;28;20197;-75
2021/01/26 19:29:33;;;;;;;5.50;4.97;;;4.30;78.20;;;;;;8290748;28;20801;-77
2021/01/26 19:33:42;;;;;;;6.23;5.60;;;4.30;77.90;;;;;;8328078;28;20472;-75
2021/01/26 19:37:46;;;;;;;9.40;6.10;;;4.40;77.80;;;;;;8311742;28;20470;-75
2021/01/26 19:42:12;;;;;;;13.27;5.43;;;4.40;77.70;;;;;;8318671;28;20480;-74
2021/01/26 19:46:15;;;;;;;8.33;5.13;;;4.40;77.60;;;;;;8308485;28;20515;-74
2021/01/26 19:50:28;;;;;;;8.23;5.87;;;4.50;78.20;;;;;;8288457;28;20500;-75
2021/01/26 19:54:31;;;;;;;8.53;6.27;;;4.50;77.40;;;;;;8283078;28;20449;-75
2021/01/26 19:58:38;;;;;;;13.53;7.53;;;4.60;77.10;;;;;;8287360;28;20450;-76
2021/01/26 20:02:44;;;;;;;6.67;5.67;;;4.70;77.00;;;;;;8294666;28;20485;-75
2021/01/26 20:06:49;;;;;;;9.57;5.60;;;4.70;76.80;;;;;;8292671;28;20453;-76
2021/01/26 20:10:57;;;;;;;12.70;6.47;;;4.70;76.50;;;;;;8290829;28;20540;-76
2021/01/26 20:15:00;;;;;;;9.93;6.80;;;4.80;76.20;;;;;;8290609;28;20483;-75
2021/01/26 20:19:02;;;;;;;13.10;7.47;;;4.80;75.80;;;;;;8277117;28;21234;-76
2021/01/26 20:23:07;;;;;;;9.90;6.20;;;4.90;75.40;;;;;;8288396;28;20582;-76
2021/01/26 20:27:11;;;;;;;14.33;7.30;;;5.00;75.10;;;;;;8289281;28;20460;-76
2021/01/26 20:31:14;;;;;;;18.60;9.13;;;5.00;74.70;;;;;;8303794;28;20443;-76
2021/01/26 20:35:16;;;;;;;12.37;7.10;;;5.00;74.40;;;;;;8295832;28;20484;-76
2021/01/26 20:39:20;;;;;;;19.80;8.10;;;5.10;74.00;;;;;;8329269;28;20505;-76
2021/01/26 20:43:22;;;;;;;11.13;7.17;;;5.10;73.70;;;;;;8316435;28;20469;-76
2021/01/26 20:47:23;;;;;;;11.63;7.17;;;5.00;73.90;;;;;;8290286;28;20454;-76
2021/01/26 20:51:35;;;;;;;8.33;6.00;;;5.00;73.60;;;;;;8274893;28;20461;-76
2021/01/26 20:55:38;;;;;;;11.33;6.20;;;5.00;73.60;;;;;;8289746;28;20457;-76
2021/01/26 20:59:41;;;;;;;11.70;7.17;;;5.00;73.40;;;;;;8305771;28;20955;-75
2021/01/26 21:03:44;;;;;;;7.90;5.60;;;5.00;72.70;;;;;;8292469;28;20473;-76
2021/01/26 21:07:46;;;;;;;7.53;6.60;;;5.00;72.70;;;;;;8302565;28;20529;-77
2021/01/26 21:11:47;;;;;;;7.17;5.60;;;5.00;72.70;;;;;;8288419;28;20519;-77
2021/01/26 21:15:54;;;;;;;10.03;6.23;;;5.00;72.60;;;;;;8295079;28;20449;-76
2021/01/26 21:19:58;;;;;;;6.57;5.40;;;5.00;72.00;;;;;;8293563;28;20445;-76
2021/01/26 21:23:59;;;;;;;5.70;5.17;;;5.00;72.00;;;;;;8312601;28;20450;-76
2021/01/26 21:28:01;;;;;;;8.53;5.60;;;5.00;71.70;;;;;;8305912;28;21000;-75
2021/01/26 21:32:04;;;;;;;9.43;5.87;;;5.00;71.10;;;;;;8295996;28;20482;-75
2021/01/26 21:36:05;;;;;;;10.13;5.70;;;5.00;71.00;;;;;;8263884;28;20465;-75